Airport View

Enter AWOS ICAO identifier for current METAR.

ex. KFNL

PMDY 191956Z AUTO 20010KT 6SM HZ CLR 29/24 A2998 RMK AO2 SLP153 T02940239

19 Aug 2019 20:18

Frequency: 118.325

Phone: 808 674-9286

TAF PMDY 191738Z 1918/2018 19010KT P6SM SCT020